sensor_id;sensor_type;location;lat;lon;timestamp;P1;durP1;ratioP1;P2;durP2;ratioP2
74528;SDS011;63009;52.584;5.932;2023-09-12T00:02:02;47.45;;;26.65;;
74528;SDS011;63009;52.584;5.932;2023-09-12T00:04:28;46.38;;;27.15;;
74528;SDS011;63009;52.584;5.932;2023-09-12T00:06:53;47.80;;;25.17;;
74528;SDS011;63009;52.584;5.932;2023-09-12T00:09:18;49.65;;;27.73;;
74528;SDS011;63009;52.584;5.932;2023-09-12T00:11:44;38.90;;;24.23;;
74528;SDS011;63009;52.584;5.932;2023-09-12T00:14:09;47.00;;;25.90;;
74528;SDS011;63009;52.584;5.932;2023-09-12T00:16:34;42.35;;;25.00;;
74528;SDS011;63009;52.584;5.932;2023-09-12T00:19:00;43.37;;;25.70;;
74528;SDS011;63009;52.584;5.932;2023-09-12T00:21:25;43.63;;;23.73;;
74528;SDS011;63009;52.584;5.932;2023-09-12T00:23:51;43.90;;;25.33;;
74528;SDS011;63009;52.584;5.932;2023-09-12T00:26:16;47.63;;;25.30;;
74528;SDS011;63009;52.584;5.932;2023-09-12T00:28:41;44.50;;;24.48;;
74528;SDS011;63009;52.584;5.932;2023-09-12T00:31:07;46.67;;;27.23;;
74528;SDS011;63009;52.584;5.932;2023-09-12T00:33:32;42.10;;;25.77;;
74528;SDS011;63009;52.584;5.932;2023-09-12T00:35:57;45.50;;;25.53;;
74528;SDS011;63009;52.584;5.932;2023-09-12T00:38:23;50.85;;;27.42;;
74528;SDS011;63009;52.584;5.932;2023-09-12T00:40:49;53.83;;;28.15;;
74528;SDS011;63009;52.584;5.932;2023-09-12T00:43:15;48.33;;;25.70;;
74528;SDS011;63009;52.584;5.932;2023-09-12T00:45:40;47.95;;;24.67;;
74528;SDS011;63009;52.584;5.932;2023-09-12T00:48:06;43.65;;;24.60;;
74528;SDS011;63009;52.584;5.932;2023-09-12T00:50:32;48.13;;;25.63;;
74528;SDS011;63009;52.584;5.932;2023-09-12T00:52:58;48.25;;;26.75;;
74528;SDS011;63009;52.584;5.932;2023-09-12T00:55:25;47.00;;;27.67;;
74528;SDS011;63009;52.584;5.932;2023-09-12T00:57:51;46.72;;;27.38;;
74528;SDS011;63009;52.584;5.932;2023-09-12T01:00:18;46.15;;;25.48;;
74528;SDS011;63009;52.584;5.932;2023-09-12T01:02:44;41.75;;;23.00;;
74528;SDS011;63009;52.584;5.932;2023-09-12T01:05:12;42.30;;;25.27;;
74528;SDS011;63009;52.584;5.932;2023-09-12T01:07:39;45.50;;;26.30;;
74528;SDS011;63009;52.584;5.932;2023-09-12T01:10:05;47.05;;;26.33;;
74528;SDS011;63009;52.584;5.932;2023-09-12T01:12:31;45.05;;;25.33;;
74528;SDS011;63009;52.584;5.932;2023-09-12T01:14:56;48.60;;;27.13;;
74528;SDS011;63009;52.584;5.932;2023-09-12T01:17:24;44.78;;;24.38;;
74528;SDS011;63009;52.584;5.932;2023-09-12T01:19:52;51.05;;;26.73;;
74528;SDS011;63009;52.584;5.932;2023-09-12T01:25:34;53.03;;;27.65;;
74528;SDS011;63009;52.584;5.932;2023-09-12T01:28:21;39.00;;;22.45;;
74528;SDS011;63009;52.584;5.932;2023-09-12T01:30:50;35.42;;;22.85;;
74528;SDS011;63009;52.584;5.932;2023-09-12T01:33:16;40.47;;;22.33;;
74528;SDS011;63009;52.584;5.932;2023-09-12T01:35:42;40.33;;;23.52;;
74528;SDS011;63009;52.584;5.932;2023-09-12T01:38:08;36.97;;;21.70;;
74528;SDS011;63009;52.584;5.932;2023-09-12T01:40:42;43.35;;;24.38;;
74528;SDS011;63009;52.584;5.932;2023-09-12T01:43:10;44.15;;;25.20;;
74528;SDS011;63009;52.584;5.932;2023-09-12T01:45:37;48.03;;;24.98;;
74528;SDS011;63009;52.584;5.932;2023-09-12T01:48:04;43.07;;;24.77;;
74528;SDS011;63009;52.584;5.932;2023-09-12T01:50:31;44.40;;;25.40;;
74528;SDS011;63009;52.584;5.932;2023-09-12T01:52:58;49.17;;;28.15;;
74528;SDS011;63009;52.584;5.932;2023-09-12T01:55:24;50.03;;;26.98;;
74528;SDS011;63009;52.584;5.932;2023-09-12T01:57:50;54.88;;;28.88;;
74528;SDS011;63009;52.584;5.932;2023-09-12T02:00:17;56.53;;;28.05;;
74528;SDS011;63009;52.584;5.932;2023-09-12T02:02:43;55.63;;;30.55;;
74528;SDS011;63009;52.584;5.932;2023-09-12T02:05:12;58.90;;;31.37;;
74528;SDS011;63009;52.584;5.932;2023-09-12T02:07:43;57.95;;;30.27;;
74528;SDS011;63009;52.584;5.932;2023-09-12T02:10:09;61.25;;;31.95;;
74528;SDS011;63009;52.584;5.932;2023-09-12T02:12:37;57.80;;;29.20;;
74528;SDS011;63009;52.584;5.932;2023-09-12T02:15:03;57.10;;;29.40;;
74528;SDS011;63009;52.584;5.932;2023-09-12T02:17:29;63.70;;;31.95;;
74528;SDS011;63009;52.584;5.932;2023-09-12T02:19:54;60.57;;;30.07;;
74528;SDS011;63009;52.584;5.932;2023-09-12T02:22:19;64.33;;;30.20;;
74528;SDS011;63009;52.584;5.932;2023-09-12T02:24:45;62.28;;;31.52;;
74528;SDS011;63009;52.584;5.932;2023-09-12T02:27:10;56.93;;;29.10;;
74528;SDS011;63009;52.584;5.932;2023-09-12T02:29:36;59.17;;;30.10;;
74528;SDS011;63009;52.584;5.932;2023-09-12T02:32:03;59.40;;;30.98;;
74528;SDS011;63009;52.584;5.932;2023-09-12T02:34:29;60.22;;;29.98;;
74528;SDS011;63009;52.584;5.932;2023-09-12T02:36:54;60.47;;;29.33;;
74528;SDS011;63009;52.584;5.932;2023-09-12T02:39:19;57.17;;;30.00;;
74528;SDS011;63009;52.584;5.932;2023-09-12T02:41:44;54.57;;;28.07;;
74528;SDS011;63009;52.584;5.932;2023-09-12T02:44:10;46.43;;;25.60;;
74528;SDS011;63009;52.584;5.932;2023-09-12T02:46:36;47.13;;;25.47;;
74528;SDS011;63009;52.584;5.932;2023-09-12T02:49:01;44.63;;;24.30;;
74528;SDS011;63009;52.584;5.932;2023-09-12T02:51:26;48.10;;;25.63;;
74528;SDS011;63009;52.584;5.932;2023-09-12T02:53:52;43.83;;;24.92;;
74528;SDS011;63009;52.584;5.932;2023-09-12T02:56:17;45.07;;;22.83;;
74528;SDS011;63009;52.584;5.932;2023-09-12T02:58:45;40.50;;;23.03;;
74528;SDS011;63009;52.584;5.932;2023-09-12T03:01:14;50.20;;;27.98;;
74528;SDS011;63009;52.584;5.932;2023-09-12T03:03:41;46.20;;;26.67;;
74528;SDS011;63009;52.584;5.932;2023-09-12T03:06:06;48.83;;;26.37;;
74528;SDS011;63009;52.584;5.932;2023-09-12T03:08:31;51.27;;;28.17;;
74528;SDS011;63009;52.584;5.932;2023-09-12T03:10:57;40.73;;;22.27;;
74528;SDS011;63009;52.584;5.932;2023-09-12T03:13:25;37.72;;;20.70;;
74528;SDS011;63009;52.584;5.932;2023-09-12T03:15:51;35.00;;;19.00;;
74528;SDS011;63009;52.584;5.932;2023-09-12T03:18:17;47.22;;;25.92;;
74528;SDS011;63009;52.584;5.932;2023-09-12T03:20:42;47.08;;;24.40;;
74528;SDS011;63009;52.584;5.932;2023-09-12T03:23:07;47.10;;;27.33;;
74528;SDS011;63009;52.584;5.932;2023-09-12T03:25:39;40.67;;;22.55;;
74528;SDS011;63009;52.584;5.932;2023-09-12T03:28:05;40.45;;;22.42;;
74528;SDS011;63009;52.584;5.932;2023-09-12T03:30:34;40.92;;;23.58;;
74528;SDS011;63009;52.584;5.932;2023-09-12T03:33:01;54.33;;;27.80;;
74528;SDS011;63009;52.584;5.932;2023-09-12T03:35:27;48.97;;;27.73;;
74528;SDS011;63009;52.584;5.932;2023-09-12T03:37:53;44.90;;;26.70;;
74528;SDS011;63009;52.584;5.932;2023-09-12T03:40:19;55.47;;;26.93;;
74528;SDS011;63009;52.584;5.932;2023-09-12T03:42:44;51.78;;;24.70;;
74528;SDS011;63009;52.584;5.932;2023-09-12T03:45:10;52.25;;;26.52;;
74528;SDS011;63009;52.584;5.932;2023-09-12T03:47:35;59.83;;;28.48;;
74528;SDS011;63009;52.584;5.932;2023-09-12T03:50:00;56.73;;;29.00;;
74528;SDS011;63009;52.584;5.932;2023-09-12T03:52:25;54.90;;;26.77;;
74528;SDS011;63009;52.584;5.932;2023-09-12T03:54:51;56.33;;;30.00;;
74528;SDS011;63009;52.584;5.932;2023-09-12T03:57:16;55.07;;;28.37;;
74528;SDS011;63009;52.584;5.932;2023-09-12T03:59:41;56.63;;;30.53;;
74528;SDS011;63009;52.584;5.932;2023-09-12T04:02:06;53.40;;;26.47;;
74528;SDS011;63009;52.584;5.932;2023-09-12T04:04:33;50.67;;;26.95;;
74528;SDS011;63009;52.584;5.932;2023-09-12T04:06:58;46.65;;;26.00;;
74528;SDS011;63009;52.584;5.932;2023-09-12T04:09:24;48.40;;;25.47;;
74528;SDS011;63009;52.584;5.932;2023-09-12T04:11:49;48.80;;;26.27;;
74528;SDS011;63009;52.584;5.932;2023-09-12T04:14:14;49.37;;;26.63;;
74528;SDS011;63009;52.584;5.932;2023-09-12T04:16:40;47.50;;;24.25;;
74528;SDS011;63009;52.584;5.932;2023-09-12T04:19:05;48.00;;;25.57;;
74528;SDS011;63009;52.584;5.932;2023-09-12T04:21:30;45.70;;;24.63;;
74528;SDS011;63009;52.584;5.932;2023-09-12T04:23:55;50.70;;;24.20;;
74528;SDS011;63009;52.584;5.932;2023-09-12T04:26:21;56.17;;;23.23;;
74528;SDS011;63009;52.584;5.932;2023-09-12T04:28:46;39.33;;;23.10;;
74528;SDS011;63009;52.584;5.932;2023-09-12T04:31:12;51.78;;;25.25;;
74528;SDS011;63009;52.584;5.932;2023-09-12T04:33:37;61.40;;;24.58;;
74528;SDS011;63009;52.584;5.932;2023-09-12T04:36:03;43.90;;;25.35;;
74528;SDS011;63009;52.584;5.932;2023-09-12T04:38:29;40.75;;;22.02;;
74528;SDS011;63009;52.584;5.932;2023-09-12T04:40:55;74.93;;;26.83;;
74528;SDS011;63009;52.584;5.932;2023-09-12T04:43:21;58.60;;;25.60;;
74528;SDS011;63009;52.584;5.932;2023-09-12T04:45:46;53.03;;;27.33;;
74528;SDS011;63009;52.584;5.932;2023-09-12T04:48:11;57.10;;;29.07;;
74528;SDS011;63009;52.584;5.932;2023-09-12T04:50:42;59.47;;;27.30;;
74528;SDS011;63009;52.584;5.932;2023-09-12T04:53:08;57.45;;;27.08;;
74528;SDS011;63009;52.584;5.932;2023-09-12T04:55:36;51.13;;;24.63;;
74528;SDS011;63009;52.584;5.932;2023-09-12T04:58:02;54.28;;;27.67;;
74528;SDS011;63009;52.584;5.932;2023-09-12T05:00:29;55.25;;;27.52;;
74528;SDS011;63009;52.584;5.932;2023-09-12T05:02:54;56.72;;;30.67;;
74528;SDS011;63009;52.584;5.932;2023-09-12T05:05:19;53.27;;;26.07;;
74528;SDS011;63009;52.584;5.932;2023-09-12T05:07:44;50.40;;;27.07;;
74528;SDS011;63009;52.584;5.932;2023-09-12T05:10:10;52.03;;;26.77;;
74528;SDS011;63009;52.584;5.932;2023-09-12T05:12:35;54.10;;;25.70;;
74528;SDS011;63009;52.584;5.932;2023-09-12T05:15:00;56.40;;;28.10;;
74528;SDS011;63009;52.584;5.932;2023-09-12T05:17:25;55.13;;;29.40;;
74528;SDS011;63009;52.584;5.932;2023-09-12T05:19:52;57.10;;;27.88;;
74528;SDS011;63009;52.584;5.932;2023-09-12T05:22:17;50.58;;;28.35;;
74528;SDS011;63009;52.584;5.932;2023-09-12T05:24:43;43.05;;;24.48;;
74528;SDS011;63009;52.584;5.932;2023-09-12T05:27:08;46.17;;;25.48;;
74528;SDS011;63009;52.584;5.932;2023-09-12T05:29:33;54.13;;;26.70;;
74528;SDS011;63009;52.584;5.932;2023-09-12T05:31:59;53.77;;;28.23;;
74528;SDS011;63009;52.584;5.932;2023-09-12T05:34:24;52.60;;;26.90;;
74528;SDS011;63009;52.584;5.932;2023-09-12T05:36:49;46.63;;;23.03;;
74528;SDS011;63009;52.584;5.932;2023-09-12T05:39:14;45.43;;;24.97;;
74528;SDS011;63009;52.584;5.932;2023-09-12T05:41:40;48.80;;;24.30;;
74528;SDS011;63009;52.584;5.932;2023-09-12T05:44:05;53.00;;;26.97;;
74528;SDS011;63009;52.584;5.932;2023-09-12T05:46:30;53.67;;;26.10;;
74528;SDS011;63009;52.584;5.932;2023-09-12T05:48:56;52.93;;;28.57;;
74528;SDS011;63009;52.584;5.932;2023-09-12T05:51:21;53.63;;;27.30;;
74528;SDS011;63009;52.584;5.932;2023-09-12T05:53:46;52.00;;;26.98;;
74528;SDS011;63009;52.584;5.932;2023-09-12T05:56:11;53.93;;;26.20;;
74528;SDS011;63009;52.584;5.932;2023-09-12T05:58:37;52.00;;;27.33;;
74528;SDS011;63009;52.584;5.932;2023-09-12T06:01:06;56.28;;;29.52;;
74528;SDS011;63009;52.584;5.932;2023-09-12T06:03:32;56.42;;;28.15;;
74528;SDS011;63009;52.584;5.932;2023-09-12T06:05:57;55.17;;;26.60;;
74528;SDS011;63009;52.584;5.932;2023-09-12T06:08:22;62.67;;;29.98;;
74528;SDS011;63009;52.584;5.932;2023-09-12T06:10:47;56.60;;;31.10;;
74528;SDS011;63009;52.584;5.932;2023-09-12T06:13:13;54.22;;;29.33;;
74528;SDS011;63009;52.584;5.932;2023-09-12T06:15:39;56.97;;;28.15;;
74528;SDS011;63009;52.584;5.932;2023-09-12T06:18:06;51.78;;;28.60;;
74528;SDS011;63009;52.584;5.932;2023-09-12T06:20:31;58.10;;;28.57;;
74528;SDS011;63009;52.584;5.932;2023-09-12T06:22:56;61.45;;;29.27;;
74528;SDS011;63009;52.584;5.932;2023-09-12T06:25:22;60.63;;;31.13;;
74528;SDS011;63009;52.584;5.932;2023-09-12T06:27:47;58.77;;;30.43;;
74528;SDS011;63009;52.584;5.932;2023-09-12T06:30:12;56.80;;;30.80;;
74528;SDS011;63009;52.584;5.932;2023-09-12T06:32:38;58.13;;;31.40;;
74528;SDS011;63009;52.584;5.932;2023-09-12T06:35:03;55.92;;;30.35;;
74528;SDS011;63009;52.584;5.932;2023-09-12T06:37:29;51.55;;;28.65;;
74528;SDS011;63009;52.584;5.932;2023-09-12T06:39:54;50.17;;;28.10;;
74528;SDS011;63009;52.584;5.932;2023-09-12T06:42:19;49.65;;;30.23;;
74528;SDS011;63009;52.584;5.932;2023-09-12T06:44:44;50.13;;;29.03;;
74528;SDS011;63009;52.584;5.932;2023-09-12T06:47:10;53.73;;;27.87;;
74528;SDS011;63009;52.584;5.932;2023-09-12T06:49:35;49.85;;;30.58;;
74528;SDS011;63009;52.584;5.932;2023-09-12T06:52:02;46.25;;;26.00;;
74528;SDS011;63009;52.584;5.932;2023-09-12T06:54:28;43.85;;;27.17;;
74528;SDS011;63009;52.584;5.932;2023-09-12T06:56:53;45.63;;;27.83;;
74528;SDS011;63009;52.584;5.932;2023-09-12T06:59:19;43.50;;;26.23;;
74528;SDS011;63009;52.584;5.932;2023-09-12T07:01:44;44.17;;;26.97;;
74528;SDS011;63009;52.584;5.932;2023-09-12T07:04:10;46.83;;;25.90;;
74528;SDS011;63009;52.584;5.932;2023-09-12T07:06:35;42.42;;;25.73;;
74528;SDS011;63009;52.584;5.932;2023-09-12T07:09:00;38.47;;;24.00;;
74528;SDS011;63009;52.584;5.932;2023-09-12T07:11:25;41.90;;;24.67;;
74528;SDS011;63009;52.584;5.932;2023-09-12T07:13:51;40.03;;;25.17;;
74528;SDS011;63009;52.584;5.932;2023-09-12T07:16:16;39.80;;;24.90;;
74528;SDS011;63009;52.584;5.932;2023-09-12T07:18:41;40.83;;;25.10;;
74528;SDS011;63009;52.584;5.932;2023-09-12T07:21:07;38.27;;;26.33;;
74528;SDS011;63009;52.584;5.932;2023-09-12T07:23:32;39.85;;;24.88;;
74528;SDS011;63009;52.584;5.932;2023-09-12T07:25:58;40.17;;;25.27;;
74528;SDS011;63009;52.584;5.932;2023-09-12T07:28:23;37.80;;;24.95;;
74528;SDS011;63009;52.584;5.932;2023-09-12T07:30:49;39.70;;;25.52;;
74528;SDS011;63009;52.584;5.932;2023-09-12T07:33:15;40.70;;;26.17;;
74528;SDS011;63009;52.584;5.932;2023-09-12T07:35:40;39.77;;;26.27;;
74528;SDS011;63009;52.584;5.932;2023-09-12T07:38:05;40.30;;;24.10;;
74528;SDS011;63009;52.584;5.932;2023-09-12T07:40:30;41.50;;;25.97;;
74528;SDS011;63009;52.584;5.932;2023-09-12T07:42:56;41.40;;;25.35;;
74528;SDS011;63009;52.584;5.932;2023-09-12T07:45:21;41.42;;;25.85;;
74528;SDS011;63009;52.584;5.932;2023-09-12T07:47:46;45.75;;;28.40;;
74528;SDS011;63009;52.584;5.932;2023-09-12T07:50:12;39.27;;;24.10;;
74528;SDS011;63009;52.584;5.932;2023-09-12T07:52:37;41.30;;;26.30;;
74528;SDS011;63009;52.584;5.932;2023-09-12T07:55:03;45.10;;;24.33;;
74528;SDS011;63009;52.584;5.932;2023-09-12T07:57:29;42.42;;;28.15;;
74528;SDS011;63009;52.584;5.932;2023-09-12T07:59:55;42.65;;;27.50;;
74528;SDS011;63009;52.584;5.932;2023-09-12T08:02:21;41.42;;;26.20;;
74528;SDS011;63009;52.584;5.932;2023-09-12T08:04:46;39.28;;;25.15;;
74528;SDS011;63009;52.584;5.932;2023-09-12T08:07:11;41.15;;;26.80;;
74528;SDS011;63009;52.584;5.932;2023-09-12T08:09:53;40.43;;;24.00;;
74528;SDS011;63009;52.584;5.932;2023-09-12T08:12:20;42.55;;;27.73;;
74528;SDS011;63009;52.584;5.932;2023-09-12T08:14:46;38.42;;;24.77;;
74528;SDS011;63009;52.584;5.932;2023-09-12T08:17:12;38.63;;;23.90;;
74528;SDS011;63009;52.584;5.932;2023-09-12T08:19:38;39.65;;;26.15;;
74528;SDS011;63009;52.584;5.932;2023-09-12T08:22:04;36.25;;;22.80;;
74528;SDS011;63009;52.584;5.932;2023-09-12T08:24:30;41.65;;;26.05;;
74528;SDS011;63009;52.584;5.932;2023-09-12T08:26:55;37.30;;;22.37;;
74528;SDS011;63009;52.584;5.932;2023-09-12T08:29:21;39.47;;;24.63;;
74528;SDS011;63009;52.584;5.932;2023-09-12T08:31:46;40.38;;;25.67;;
74528;SDS011;63009;52.584;5.932;2023-09-12T08:34:12;41.95;;;25.30;;
74528;SDS011;63009;52.584;5.932;2023-09-12T08:36:37;36.35;;;22.48;;
74528;SDS011;63009;52.584;5.932;2023-09-12T08:39:03;39.17;;;23.60;;
74528;SDS011;63009;52.584;5.932;2023-09-12T08:41:29;37.72;;;22.65;;
74528;SDS011;63009;52.584;5.932;2023-09-12T08:43:54;38.43;;;22.97;;
74528;SDS011;63009;52.584;5.932;2023-09-12T08:46:21;35.30;;;24.45;;
74528;SDS011;63009;52.584;5.932;2023-09-12T08:48:47;39.97;;;23.85;;
74528;SDS011;63009;52.584;5.932;2023-09-12T08:51:14;37.30;;;23.17;;
74528;SDS011;63009;52.584;5.932;2023-09-12T08:53:40;37.15;;;22.63;;
74528;SDS011;63009;52.584;5.932;2023-09-12T08:56:05;38.58;;;22.13;;
74528;SDS011;63009;52.584;5.932;2023-09-12T08:58:32;35.17;;;20.98;;
74528;SDS011;63009;52.584;5.932;2023-09-12T09:00:57;34.45;;;19.77;;
74528;SDS011;63009;52.584;5.932;2023-09-12T09:03:24;33.08;;;17.80;;
74528;SDS011;63009;52.584;5.932;2023-09-12T09:05:50;32.30;;;18.70;;
74528;SDS011;63009;52.584;5.932;2023-09-12T09:08:16;36.05;;;20.25;;
74528;SDS011;63009;52.584;5.932;2023-09-12T09:10:59;32.50;;;18.58;;
74528;SDS011;63009;52.584;5.932;2023-09-12T09:13:27;33.58;;;19.95;;
74528;SDS011;63009;52.584;5.932;2023-09-12T09:16:08;33.10;;;20.30;;
74528;SDS011;63009;52.584;5.932;2023-09-12T09:18:49;34.00;;;20.58;;
74528;SDS011;63009;52.584;5.932;2023-09-12T09:21:18;35.90;;;21.60;;
74528;SDS011;63009;52.584;5.932;2023-09-12T09:23:45;38.05;;;21.60;;
74528;SDS011;63009;52.584;5.932;2023-09-12T09:26:11;35.83;;;21.50;;
74528;SDS011;63009;52.584;5.932;2023-09-12T09:28:37;35.70;;;20.95;;
74528;SDS011;63009;52.584;5.932;2023-09-12T09:31:04;35.70;;;20.40;;
74528;SDS011;63009;52.584;5.932;2023-09-12T09:33:35;31.65;;;18.85;;
74528;SDS011;63009;52.584;5.932;2023-09-12T09:36:04;32.47;;;20.90;;
74528;SDS011;63009;52.584;5.932;2023-09-12T09:38:31;31.17;;;18.98;;
74528;SDS011;63009;52.584;5.932;2023-09-12T09:40:56;33.42;;;20.58;;
74528;SDS011;63009;52.584;5.932;2023-09-12T09:43:22;33.53;;;18.83;;
74528;SDS011;63009;52.584;5.932;2023-09-12T09:45:47;31.95;;;20.40;;
74528;SDS011;63009;52.584;5.932;2023-09-12T09:48:23;32.25;;;20.13;;
74528;SDS011;63009;52.584;5.932;2023-09-12T09:50:51;28.05;;;17.75;;
74528;SDS011;63009;52.584;5.932;2023-09-12T09:53:20;27.65;;;16.08;;
74528;SDS011;63009;52.584;5.932;2023-09-12T09:55:50;32.47;;;19.13;;
74528;SDS011;63009;52.584;5.932;2023-09-12T09:58:16;29.63;;;19.00;;
74528;SDS011;63009;52.584;5.932;2023-09-12T10:00:44;29.83;;;18.40;;
74528;SDS011;63009;52.584;5.932;2023-09-12T10:03:13;29.15;;;16.90;;
74528;SDS011;63009;52.584;5.932;2023-09-12T10:05:40;25.50;;;15.23;;
74528;SDS011;63009;52.584;5.932;2023-09-12T10:08:07;29.15;;;18.05;;
74528;SDS011;63009;52.584;5.932;2023-09-12T10:13:00;30.65;;;18.27;;
74528;SDS011;63009;52.584;5.932;2023-09-12T10:15:29;28.13;;;17.38;;
74528;SDS011;63009;52.584;5.932;2023-09-12T10:17:56;27.52;;;16.08;;
74528;SDS011;63009;52.584;5.932;2023-09-12T10:20:25;28.48;;;17.25;;
74528;SDS011;63009;52.584;5.932;2023-09-12T10:23:04;24.20;;;14.27;;
74528;SDS011;63009;52.584;5.932;2023-09-12T10:25:35;25.08;;;15.23;;
74528;SDS011;63009;52.584;5.932;2023-09-12T10:28:02;26.85;;;17.40;;
74528;SDS011;63009;52.584;5.932;2023-09-12T10:30:30;27.42;;;16.35;;
74528;SDS011;63009;52.584;5.932;2023-09-12T10:32:56;26.30;;;15.35;;
74528;SDS011;63009;52.584;5.932;2023-09-12T10:35:22;29.52;;;17.88;;
74528;SDS011;63009;52.584;5.932;2023-09-12T10:37:48;23.97;;;14.93;;
74528;SDS011;63009;52.584;5.932;2023-09-12T10:40:14;26.65;;;15.80;;
74528;SDS011;63009;52.584;5.932;2023-09-12T10:42:40;30.45;;;17.33;;
74528;SDS011;63009;52.584;5.932;2023-09-12T10:45:07;25.90;;;17.58;;
74528;SDS011;63009;52.584;5.932;2023-09-12T10:47:34;25.33;;;15.25;;
74528;SDS011;63009;52.584;5.932;2023-09-12T10:50:01;19.75;;;12.15;;
74528;SDS011;63009;52.584;5.932;2023-09-12T10:52:27;21.90;;;14.57;;
74528;SDS011;63009;52.584;5.932;2023-09-12T10:54:53;24.65;;;14.55;;
74528;SDS011;63009;52.584;5.932;2023-09-12T10:57:18;22.00;;;12.47;;
74528;SDS011;63009;52.584;5.932;2023-09-12T11:02:28;23.88;;;14.77;;
74528;SDS011;63009;52.584;5.932;2023-09-12T11:04:55;25.35;;;16.05;;
74528;SDS011;63009;52.584;5.932;2023-09-12T11:12:42;20.42;;;12.68;;
74528;SDS011;63009;52.584;5.932;2023-09-12T11:18:00;21.42;;;12.38;;
74528;SDS011;63009;52.584;5.932;2023-09-12T11:20:27;21.15;;;12.98;;
74528;SDS011;63009;52.584;5.932;2023-09-12T11:23:25;19.75;;;12.00;;
74528;SDS011;63009;52.584;5.932;2023-09-12T11:26:06;19.75;;;10.70;;
74528;SDS011;63009;52.584;5.932;2023-09-12T11:28:32;18.95;;;11.13;;
74528;SDS011;63009;52.584;5.932;2023-09-12T11:30:58;18.13;;;11.00;;
74528;SDS011;63009;52.584;5.932;2023-09-12T11:33:26;14.30;;;7.32;;
74528;SDS011;63009;52.584;5.932;2023-09-12T11:35:53;17.45;;;10.05;;
74528;SDS011;63009;52.584;5.932;2023-09-12T11:38:28;16.00;;;8.35;;
74528;SDS011;63009;52.584;5.932;2023-09-12T11:40:54;14.88;;;8.77;;
74528;SDS011;63009;52.584;5.932;2023-09-12T11:43:21;15.20;;;9.15;;
74528;SDS011;63009;52.584;5.932;2023-09-12T11:45:51;18.77;;;11.35;;
74528;SDS011;63009;52.584;5.932;2023-09-12T11:48:17;16.52;;;9.85;;
74528;SDS011;63009;52.584;5.932;2023-09-12T11:50:48;19.08;;;11.63;;
74528;SDS011;63009;52.584;5.932;2023-09-12T11:53:19;20.15;;;11.48;;
74528;SDS011;63009;52.584;5.932;2023-09-12T11:55:47;22.02;;;13.07;;
74528;SDS011;63009;52.584;5.932;2023-09-12T11:58:16;16.30;;;9.02;;
74528;SDS011;63009;52.584;5.932;2023-09-12T12:00:45;18.40;;;10.27;;
74528;SDS011;63009;52.584;5.932;2023-09-12T12:03:13;15.43;;;9.77;;
74528;SDS011;63009;52.584;5.932;2023-09-12T12:05:39;19.60;;;10.32;;
74528;SDS011;63009;52.584;5.932;2023-09-12T12:08:06;18.08;;;10.48;;
74528;SDS011;63009;52.584;5.932;2023-09-12T12:10:33;15.10;;;8.70;;
74528;SDS011;63009;52.584;5.932;2023-09-12T12:12:59;18.58;;;10.15;;
74528;SDS011;63009;52.584;5.932;2023-09-12T12:15:24;15.60;;;9.43;;
74528;SDS011;63009;52.584;5.932;2023-09-12T12:17:54;12.73;;;7.20;;
74528;SDS011;63009;52.584;5.932;2023-09-12T12:20:21;12.48;;;7.00;;
74528;SDS011;63009;52.584;5.932;2023-09-12T12:22:47;15.35;;;8.15;;
74528;SDS011;63009;52.584;5.932;2023-09-12T12:25:13;15.68;;;7.82;;
74528;SDS011;63009;52.584;5.932;2023-09-12T12:27:40;15.07;;;6.47;;
74528;SDS011;63009;52.584;5.932;2023-09-12T12:30:10;13.23;;;7.88;;
74528;SDS011;63009;52.584;5.932;2023-09-12T12:32:40;13.50;;;7.57;;
74528;SDS011;63009;52.584;5.932;2023-09-12T12:35:06;17.27;;;9.50;;
74528;SDS011;63009;52.584;5.932;2023-09-12T12:37:32;18.75;;;10.60;;
74528;SDS011;63009;52.584;5.932;2023-09-12T12:39:58;19.10;;;10.68;;
74528;SDS011;63009;52.584;5.932;2023-09-12T12:42:24;17.30;;;9.70;;
74528;SDS011;63009;52.584;5.932;2023-09-12T12:44:54;16.67;;;8.48;;
74528;SDS011;63009;52.584;5.932;2023-09-12T12:47:20;16.65;;;8.20;;
74528;SDS011;63009;52.584;5.932;2023-09-12T12:49:50;13.10;;;8.07;;
74528;SDS011;63009;52.584;5.932;2023-09-12T12:52:18;15.40;;;8.30;;
74528;SDS011;63009;52.584;5.932;2023-09-12T12:54:47;12.43;;;5.47;;
74528;SDS011;63009;52.584;5.932;2023-09-12T12:57:12;9.67;;;4.87;;
74528;SDS011;63009;52.584;5.932;2023-09-12T12:59:44;11.70;;;5.63;;
74528;SDS011;63009;52.584;5.932;2023-09-12T13:02:10;11.68;;;4.93;;
74528;SDS011;63009;52.584;5.932;2023-09-12T13:04:36;8.43;;;2.30;;
74528;SDS011;63009;52.584;5.932;2023-09-12T13:07:02;6.65;;;2.25;;
74528;SDS011;63009;52.584;5.932;2023-09-12T13:09:28;7.50;;;2.80;;
74528;SDS011;63009;52.584;5.932;2023-09-12T13:11:53;9.60;;;4.10;;
74528;SDS011;63009;52.584;5.932;2023-09-12T13:14:19;11.57;;;5.33;;
74528;SDS011;63009;52.584;5.932;2023-09-12T13:16:44;10.95;;;5.45;;
74528;SDS011;63009;52.584;5.932;2023-09-12T13:19:10;13.10;;;6.53;;
74528;SDS011;63009;52.584;5.932;2023-09-12T13:21:38;13.65;;;7.22;;
74528;SDS011;63009;52.584;5.932;2023-09-12T13:24:03;10.60;;;5.45;;
74528;SDS011;63009;52.584;5.932;2023-09-12T13:26:29;11.98;;;5.15;;
74528;SDS011;63009;52.584;5.932;2023-09-12T13:28:54;12.82;;;5.97;;
74528;SDS011;63009;52.584;5.932;2023-09-12T13:31:19;12.97;;;6.63;;
74528;SDS011;63009;52.584;5.932;2023-09-12T13:33:45;14.40;;;6.40;;
74528;SDS011;63009;52.584;5.932;2023-09-12T13:36:10;10.33;;;3.90;;
74528;SDS011;63009;52.584;5.932;2023-09-12T13:38:35;9.70;;;4.82;;
74528;SDS011;63009;52.584;5.932;2023-09-12T13:41:01;10.73;;;4.75;;
74528;SDS011;63009;52.584;5.932;2023-09-12T13:43:26;11.98;;;5.95;;
74528;SDS011;63009;52.584;5.932;2023-09-12T13:45:53;12.32;;;6.47;;
74528;SDS011;63009;52.584;5.932;2023-09-12T13:48:18;14.00;;;6.87;;
74528;SDS011;63009;52.584;5.932;2023-09-12T13:50:43;12.87;;;7.43;;
74528;SDS011;63009;52.584;5.932;2023-09-12T13:53:09;9.90;;;4.70;;
74528;SDS011;63009;52.584;5.932;2023-09-12T13:55:35;13.02;;;6.45;;
74528;SDS011;63009;52.584;5.932;2023-09-12T13:58:02;11.45;;;5.68;;
74528;SDS011;63009;52.584;5.932;2023-09-12T14:00:28;13.25;;;6.30;;
74528;SDS011;63009;52.584;5.932;2023-09-12T14:02:54;12.27;;;5.40;;
74528;SDS011;63009;52.584;5.932;2023-09-12T14:05:19;11.23;;;5.80;;
74528;SDS011;63009;52.584;5.932;2023-09-12T14:07:44;13.80;;;6.57;;
74528;SDS011;63009;52.584;5.932;2023-09-12T14:10:10;12.90;;;7.10;;
74528;SDS011;63009;52.584;5.932;2023-09-12T14:12:35;11.80;;;6.17;;
74528;SDS011;63009;52.584;5.932;2023-09-12T14:15:01;12.50;;;6.10;;
74528;SDS011;63009;52.584;5.932;2023-09-12T14:17:28;13.48;;;6.97;;
74528;SDS011;63009;52.584;5.932;2023-09-12T14:19:53;13.75;;;7.03;;
74528;SDS011;63009;52.584;5.932;2023-09-12T14:22:18;15.40;;;7.15;;
74528;SDS011;63009;52.584;5.932;2023-09-12T14:24:44;16.40;;;8.10;;
74528;SDS011;63009;52.584;5.932;2023-09-12T14:27:09;13.90;;;6.13;;
74528;SDS011;63009;52.584;5.932;2023-09-12T14:29:34;11.33;;;5.70;;
74528;SDS011;63009;52.584;5.932;2023-09-12T14:32:00;14.17;;;6.70;;
74528;SDS011;63009;52.584;5.932;2023-09-12T14:34:25;13.07;;;6.00;;
74528;SDS011;63009;52.584;5.932;2023-09-12T14:36:57;12.88;;;6.72;;